Lyttelton, New Zealand
Current Conditions -  °F | °C
As of 7:00 PM on Tuesday 21 Oct 2014 (Local Time) from NZCH Reporting Station
Overcast Overcast  
Wind Chill: 54°   Ceiling: 9500
Heat Index: 54°   Visibility: 6mi
Dew Point: 41°   Wind: 6mph
Humidity: 62%   Direction: 60°ENE
Pressure: 30.15"   Gusts: NA
Location:  43.6°S, 172.72°E
Report Text: NZCH 210700Z AUTO 06005KT 9999 OVC095/// 12/05 Q1021 NOSIG
Loading
Personal Weather Stations






























Interactive Weather Map
Tropical Storm Tracking
New forecast layout! Learn more

10-Day Weather Forecast

Advertisements
Track Severe Weather on mobile